AirNav   ProFlight Series 2 Aviation Headset
 
 441 users online  

PA59 Cast & Baker Heliport
Canonsburg, Pennsylvania, USA

GOING TO CANONSBURG?


FAA INFORMATION EFFECTIVE 18 JUNE 2020

Location

FAA Identifier: PA59
Lat/Long: 40-14-17.2200N 080-10-38.7000W
40-14.287000N 080-10.645000W
40.2381167,-80.1774167
(estimated)
Elevation: 1246 ft. / 380 m (estimated)
Variation: 08W (1995)
From city: 2 miles S of CANONSBURG, PA
Time zone: UTC -4 (UTC -5 during Standard Time)
Zip code: 15317

Heliport Operations

Heliport use: Private use. Permission required prior to landing
Activation date: 02/1996
Control tower: no
ARTCC: CLEVELAND CENTER
FSS: ALTOONA FLIGHT SERVICE STATION
Attendance: MON-FRI 0700-1800
Wind indicator: lighted
Segmented circle: no

Heliport Communications

WX AWOS-3PT at AFJ (8 nm SW): 119.175 (724-228-3529)
WX ASOS at AGC (13 nm NE): 120.55 (412-466-8968)
WX AWOS-A at 42PN (15 nm NE): PHONE 412-442-2213
WX ASOS at PIT (15 nm N): PHONE 412-472-0145
WX AWOS-3 at FWQ (16 nm E): 118.475 (724-379-5815)

Nearby radio navigation aids

VOR radial/distance  VOR name  Freq  Var
AGCr258/6.7ALLEGHENY VOR/DME110.0009W
HLGr101/18.0WHEELING VOR/DME112.2007W
AIRr073/32.2BELLAIRE VOR/DME117.1007W
EWCr185/35.2ELLWOOD CITY VOR/DME115.8008W

 
NDB name  Hdg/Dist  Freq  Var  ID
CADIZ097/38.323907WCFX -.-. ..-. -..-

Heliport Services

Runway Information

Helipad H1

Dimensions: 60 x 60 ft. / 18 x 18 m
Surface: asphalt
Operational restrictions: EGRESS/INGRESS 300 DEG/120 DEG.
Latitude: 40-14.287000N
Longitude: 080-10.645000W
Elevation: 1246.0 ft.
Traffic pattern: leftleft

Heliport Ownership and Management from official FAA records

Ownership: Privately-owned
Owner: CAST & BAKER CORP
2214 WASHINGTON RD
CANONSBURG, PA 15317
Phone 724-745-6430
Manager: MICHAEL J. BAKER
2214 WASHINGTON RD
CANONSBURG, PA 15317
Phone 724-745-6430

Heliport Operational Statistics

Aircraft based on the field: 1
Helicopters: 1
    

Additional Remarks

A52-H1 BLDGS NE & SW OF HELIPAD.
FOR CD CTC PITTSBURGH APCH AT 412-472-5591

Instrument Procedures

There are no published instrument procedures at PA59.

Some nearby airports with instrument procedures:

G05 - Finleyville Airpark (8 nm E)
KAFJ - Washington County Airport (8 nm SW)
KAGC - Allegheny County Airport (13 nm NE)
KPIT - Pittsburgh International Airport (15 nm N)
KFWQ - Rostraver Airport (16 nm E)
 
Loc | Ops | Rwys | IFR | FBO | Links
Com | Nav | Svcs | Stats | Notes
Area around PA59 (Cast & Baker Heliport)
 
Road maps at: MapQuest Bing Google
 
Aerial photo
No photo
 
Sectional chart

 
Airport distance calculator
Flying to Cast & Baker Heliport? Find the distance to fly.

From to PA59

Sunrise and sunset
Times for 05-Jul-2020
 Local
(UTC-4)
 Zulu
(UTC)
Morning civil twilight05:2609:26
Sunrise05:5809:58
Sunset20:5200:52
Evening civil twilight21:2501:25

Current date and time
Zulu (UTC)  05-Jul-2020 04:58:09
Local (UTC-4)  05-Jul-2020 00:58:09
 
METAR
KAFJ 
8nm SW 
050356Z AUTO 00000KT 7SM CLR 21/18 A3003 RMK AO2 SLP158 T02060178
KAGC 
14nm NE 
050453Z 35004KT 10SM CLR 23/16 A2999 RMK AO2 SLP149 T02330156 403280222
KP53 
16nm E 
050356Z AUTO 10+5KT 21/17 A2998 RMK ŚUMM110172
KPIT 
16nm N 
050451Z 00000KT 10SM FEW140 FEW250 24/14 A3000 RMK AO2 SLP154 T02390144 403280211
TAF
KAGC 
14nm NE 
041726Z 0418/0518 33004KT P6SM SCT050= TAF KDUJ 041726Z 0418/0518 36005KT P6SM SCT060
KPIT 
16nm N 
050301Z 0503/0606 02003KT P6SM SCT250 FM051600 08003KT P6SM SCT050
NOTAMs
Click for the latest NOTAMs
NOTAMs are issued by the DoD/FAA and will open in a separate window not controlled by AirNav.

 

 
 

Would you like to see your business listed on this page?

 If your business provides an interesting product or service to pilots, flight crews, aircraft, or users of the Cast & Baker Heliport, you should consider listing it here.  To start the listing process, click on the button below
 
Add a business
 

Other Pages about Cast & Baker Heliport

Update a link
 
Copyright © AirNav, LLC. All rights reserved. Privacy Policy  Contact